This is the latest recevied weather packets stored in our database for station/object KC2BRB-1. If no packets are shown the sender has not sent any weather packets the latest 1 day(s).
| Time | Temp. | Humidity | Pressure | Rain* | Wind** | Luminosity | Snow |
|---|---|---|---|---|---|---|---|
| 1778079890 | 29.44° C | 60% | 1015 hPa | 0 mm | - | - | - |
| 1778078829 | 28.89° C | 64% | 1015 hPa | 0 mm | - | - | - |
| 1778078395 | 28.89° C | 65% | 1015 hPa | 0 mm | - | - | - |
| 1778078078 | 28.33° C | 67% | 1015 hPa | 0 mm | - | - | - |
| 1778077629 | 28.33° C | 67% | 1015 hPa | 0 mm | - | - | - |
| 1778077501 | 27.78° C | 71% | 1015 hPa | 0 mm | - | - | - |
| 1778076345 | 26.67° C | 75% | 1014.9 hPa | 0 mm | - | - | - |
| 1778075829 | 26.67° C | 75% | 1014.9 hPa | 0 mm | - | - | - |
| 1778075529 | 26.11° C | 78% | 1014.9 hPa | 0 mm | - | - | - |
| 1778075229 | 26.11° C | 78% | 1014.9 hPa | 0 mm | - | - | - |
| 1778074929 | 25.56° C | 79% | 1015 hPa | 0 mm | - | - | - |
| 1778074629 | 25.56° C | 79% | 1015 hPa | 0 mm | - | - | - |
| 1778074029 | 25.56° C | 81% | 1015 hPa | 0 mm | - | - | - |
| 1778073729 | 24.44° C | 83% | 1015 hPa | 0 mm | - | - | - |
| 1778073429 | 24.44° C | 83% | 1015 hPa | 0 mm | - | - | - |
| 1778072229 | 22.78° C | 88% | 1014.6 hPa | 0 mm | - | - | - |
| 1778071929 | 21.67° C | 89% | 1014.6 hPa | 0 mm | - | - | - |
| 1778071029 | 21.11° C | 90% | 1014.5 hPa | 0 mm | - | - | - |
| 1778068929 | 20° C | 91% | 1014.1 hPa | 0 mm | - | - | - |
| 1778066830 | 19.44° C | 91% | 1014.1 hPa | 0 mm | - | - | - |
| 1778066230 | 18.89° C | 91% | 1014.1 hPa | 0 mm | - | - | - |
| 1778065630 | 18.89° C | 91% | 1014 hPa | 0 mm | - | - | - |
| 1778064242 | 18.33° C | 91% | 1013.5 hPa | 0 mm | - | - | - |
| 1778064131 | 18.89° C | 91% | 1013.5 hPa | 0 mm | - | - | - |
| 1778062330 | 18.33° C | 92% | 1013.5 hPa | 0 mm | - | - | - |
* Rain latest hour (hover to see other rain measurements)
** Current wind speed in m/s (hover to see current wind gust speed)